createdAt,value
2018-06-04T00:02:21.461Z,53.10
2018-06-04T00:04:49.686Z,48.10
2018-06-04T00:07:17.934Z,48.33
2018-06-04T00:09:46.153Z,45.50
2018-06-04T00:12:14.414Z,48.63
2018-06-04T00:14:42.656Z,52.27
2018-06-04T00:17:10.932Z,55.63
2018-06-04T00:19:39.173Z,57.33
2018-06-04T00:22:07.409Z,59.90
2018-06-04T00:24:35.635Z,63.77
2018-06-04T00:27:03.880Z,63.83
2018-06-04T00:29:32.176Z,71.67
2018-06-04T00:32:00.419Z,60.77
2018-06-04T00:34:28.664Z,68.50
2018-06-04T00:36:56.895Z,61.27
2018-06-04T00:39:25.147Z,76.23
2018-06-04T00:41:53.410Z,86.17
2018-06-04T00:44:21.666Z,106.33
2018-06-04T00:46:49.914Z,102.47
2018-06-04T00:49:18.114Z,80.50
2018-06-04T00:51:46.361Z,64.03
2018-06-04T00:54:14.606Z,60.93
2018-06-04T00:56:42.832Z,52.83
2018-06-04T00:59:11.055Z,49.83
2018-06-04T01:01:39.294Z,44.30
2018-06-04T01:04:07.554Z,45.63
2018-06-04T01:06:35.831Z,42.23
2018-06-04T01:09:05.777Z,44.40
2018-06-04T01:11:34.057Z,46.87
2018-06-04T01:14:02.315Z,52.10
2018-06-04T01:16:30.571Z,45.87
2018-06-04T01:18:58.877Z,53.87
2018-06-04T01:21:27.148Z,83.83
2018-06-04T01:23:55.387Z,96.13
2018-06-04T01:26:23.618Z,85.23
2018-06-04T01:28:51.836Z,84.70
2018-06-04T01:31:20.111Z,94.07
2018-06-04T01:33:48.337Z,103.70
2018-06-04T01:36:16.584Z,89.00
2018-06-04T01:38:44.823Z,98.53
2018-06-04T01:41:13.058Z,169.13
2018-06-04T01:43:41.343Z,185.00
2018-06-04T01:46:09.593Z,124.37
2018-06-04T01:48:37.935Z,74.03
2018-06-04T01:51:06.232Z,129.10
2018-06-04T01:53:34.483Z,138.27
2018-06-04T01:56:02.755Z,71.97
2018-06-04T01:58:31.012Z,60.23
2018-06-04T02:00:59.269Z,63.70
2018-06-04T02:03:27.515Z,62.50
2018-06-04T02:05:55.751Z,52.97
2018-06-04T02:08:24.032Z,76.37
2018-06-04T02:10:52.657Z,190.10
2018-06-04T02:13:20.879Z,261.73
2018-06-04T02:15:49.134Z,442.47
2018-06-04T02:18:17.362Z,95.60
2018-06-04T02:20:45.654Z,128.43
2018-06-04T02:23:13.883Z,216.90
2018-06-04T02:25:42.143Z,196.80
2018-06-04T02:28:10.397Z,187.97
2018-06-04T02:30:38.628Z,234.63
2018-06-04T02:33:06.927Z,223.77
2018-06-04T02:35:35.181Z,140.47
2018-06-04T02:38:03.393Z,182.97
2018-06-04T02:40:31.635Z,305.53
2018-06-04T02:42:59.863Z,507.83
2018-06-04T02:45:28.156Z,293.87
2018-06-04T02:47:56.390Z,423.03
2018-06-04T02:50:24.641Z,117.27
2018-06-04T02:52:52.887Z,78.27
2018-06-04T02:55:21.115Z,75.27
2018-06-04T02:57:49.410Z,63.83
2018-06-04T03:00:17.674Z,48.83
2018-06-04T03:02:45.892Z,60.70
2018-06-04T03:05:14.185Z,50.60
2018-06-04T03:07:42.447Z,55.03
2018-06-04T03:10:10.648Z,64.60
2018-06-04T03:12:38.945Z,46.17
2018-06-04T03:15:07.190Z,40.10
2018-06-04T03:17:35.423Z,111.83
2018-06-04T03:20:03.672Z,95.83
2018-06-04T03:22:31.941Z,83.73
2018-06-04T03:25:00.230Z,182.63
2018-06-04T03:27:28.455Z,48.80
2018-06-04T03:29:56.692Z,55.23
2018-06-04T03:32:24.952Z,117.47
2018-06-04T03:34:53.203Z,84.40
2018-06-04T03:37:21.467Z,54.90
2018-06-04T03:39:49.717Z,152.00
2018-06-04T03:42:18.017Z,69.83
2018-06-04T03:44:46.287Z,58.63
2018-06-04T03:47:14.510Z,42.70
2018-06-04T03:49:42.744Z,57.27
2018-06-04T03:52:10.991Z,71.47
2018-06-04T03:54:39.286Z,95.33
2018-06-04T03:57:07.551Z,68.33
2018-06-04T03:59:35.794Z,45.87
2018-06-04T04:02:04.014Z,57.10
2018-06-04T04:04:32.239Z,55.93
2018-06-04T04:07:00.536Z,49.67
2018-06-04T04:09:28.811Z,49.10
2018-06-04T04:11:57.105Z,62.07
2018-06-04T04:14:25.360Z,69.30
2018-06-04T04:16:53.621Z,45.87
2018-06-04T04:19:21.913Z,45.73
2018-06-04T04:21:50.119Z,45.07
2018-06-04T04:24:18.394Z,44.47
2018-06-04T04:26:46.595Z,44.53
2018-06-04T04:29:14.810Z,40.10
2018-06-04T04:31:43.036Z,42.17
2018-06-04T04:34:11.275Z,43.73
2018-06-04T04:36:39.526Z,38.17
2018-06-04T04:39:08.426Z,36.00
2018-06-04T04:41:36.710Z,33.47
2018-06-04T04:44:04.986Z,33.43
2018-06-04T04:46:33.222Z,31.80
2018-06-04T04:49:01.554Z,32.90
2018-06-04T04:51:29.879Z,33.13
2018-06-04T04:53:58.148Z,34.30
2018-06-04T04:56:26.398Z,36.33
2018-06-04T04:58:54.640Z,34.80
2018-06-04T05:01:22.921Z,32.97
2018-06-04T05:03:51.168Z,34.77
2018-06-04T05:06:19.402Z,33.10
2018-06-04T05:08:47.631Z,36.10
2018-06-04T05:11:15.891Z,35.43
2018-06-04T05:13:44.130Z,33.30
2018-06-04T05:16:12.398Z,31.73
2018-06-04T05:18:40.608Z,29.93
2018-06-04T05:21:08.802Z,30.83
2018-06-04T05:23:37.046Z,30.23
2018-06-04T05:26:05.378Z,28.23
2018-06-04T05:28:33.592Z,27.70
2018-06-04T05:31:01.824Z,28.03
2018-06-04T05:33:30.015Z,26.53
2018-06-04T05:35:58.200Z,26.40
2018-06-04T05:38:26.379Z,23.87
2018-06-04T05:40:54.764Z,24.50
2018-06-04T05:43:23.011Z,22.57
2018-06-04T05:45:51.362Z,21.83
2018-06-04T05:48:19.558Z,21.83
2018-06-04T05:50:47.754Z,21.37
2018-06-04T05:53:15.986Z,21.50
2018-06-04T05:55:44.201Z,19.90
2018-06-04T05:58:12.406Z,19.70
2018-06-04T06:00:40.597Z,19.00
2018-06-04T06:03:08.901Z,18.63
2018-06-04T06:05:37.087Z,19.13
2018-06-04T06:08:05.273Z,21.07
2018-06-04T06:10:33.465Z,18.97
2018-06-04T06:13:01.702Z,18.90
2018-06-04T06:15:30.230Z,19.33
2018-06-04T06:17:58.431Z,17.97
2018-06-04T06:20:26.836Z,19.90
2018-06-04T06:22:55.067Z,19.93
2018-06-04T06:25:23.305Z,18.57
2018-06-04T06:27:51.544Z,19.23
2018-06-04T06:30:19.739Z,20.37
2018-06-04T06:32:47.990Z,19.43
2018-06-04T06:35:16.174Z,18.00
2018-06-04T06:37:44.355Z,18.00
2018-06-04T06:40:12.568Z,17.37
2018-06-04T06:42:40.742Z,19.10
2018-06-04T06:45:09.010Z,20.37
2018-06-04T06:47:37.192Z,23.70
2018-06-04T06:50:05.641Z,20.80
2018-06-04T06:52:33.817Z,20.00
2018-06-04T06:55:02.064Z,21.67
2018-06-04T06:57:30.366Z,22.70
2018-06-04T06:59:58.559Z,25.13
2018-06-04T07:02:26.747Z,24.80
2018-06-04T07:04:54.950Z,26.87
2018-06-04T07:07:23.179Z,25.13
2018-06-04T07:09:51.417Z,29.43
2018-06-04T07:12:19.590Z,27.73
2018-06-04T07:14:47.782Z,27.47
2018-06-04T07:17:16.006Z,25.77
2018-06-04T07:19:44.186Z,27.50
2018-06-04T07:22:12.406Z,29.30
2018-06-04T07:24:40.596Z,26.40
2018-06-04T07:27:08.821Z,27.47
2018-06-04T07:29:37.015Z,28.43
2018-06-04T07:32:05.253Z,29.50
2018-06-04T07:34:33.471Z,27.07
2018-06-04T07:37:01.669Z,26.77
2018-06-04T07:39:29.878Z,26.80
2018-06-04T07:41:58.096Z,26.83
2018-06-04T07:44:26.423Z,26.97
2018-06-04T07:46:55.051Z,27.87
2018-06-04T07:49:23.235Z,27.20
2018-06-04T07:51:51.438Z,26.37
2018-06-04T07:54:19.622Z,26.17
2018-06-04T07:56:47.801Z,21.50
2018-06-04T07:59:15.970Z,21.63
2018-06-04T08:01:44.205Z,20.33
2018-06-04T08:04:12.378Z,20.67
2018-06-04T08:06:40.601Z,21.60
2018-06-04T08:09:08.779Z,21.93
2018-06-04T08:11:36.978Z,20.50
2018-06-04T08:14:05.223Z,20.43
2018-06-04T08:16:33.560Z,19.67
2018-06-04T08:19:01.859Z,20.83
2018-06-04T08:21:30.816Z,20.37
2018-06-04T08:23:59.048Z,18.53
2018-06-04T08:26:27.324Z,18.17
2018-06-04T08:28:55.522Z,18.40
2018-06-04T08:31:23.761Z,16.67
2018-06-04T08:33:51.951Z,19.60
2018-06-04T08:36:20.185Z,17.07
2018-06-04T08:38:48.422Z,14.87
2018-06-04T08:41:16.701Z,14.30
2018-06-04T08:43:44.908Z,15.27
2018-06-04T08:46:13.103Z,14.50
2018-06-04T08:48:41.290Z,14.50
2018-06-04T08:51:09.498Z,14.37
2018-06-04T08:53:37.695Z,13.40
2018-06-04T08:56:05.957Z,14.13
2018-06-04T08:58:34.255Z,15.30
2018-06-04T09:01:02.487Z,15.17
2018-06-04T09:03:30.681Z,15.30
2018-06-04T09:05:58.878Z,16.10
2018-06-04T09:08:27.119Z,15.10
2018-06-04T09:10:55.333Z,14.67
2018-06-04T09:13:23.523Z,15.57
2018-06-04T09:15:51.714Z,15.00
2018-06-04T09:18:19.915Z,15.97
2018-06-04T09:20:48.135Z,15.20
2018-06-04T09:23:16.348Z,14.70
2018-06-04T09:25:44.549Z,16.63
2018-06-04T09:28:12.767Z,14.80
2018-06-04T09:30:41.013Z,14.60
2018-06-04T09:33:09.212Z,14.37
2018-06-04T09:35:37.401Z,14.13
2018-06-04T09:38:05.625Z,14.00
2018-06-04T09:40:33.831Z,15.27
2018-06-04T09:43:02.038Z,14.73
2018-06-04T09:45:30.275Z,13.63
2018-06-04T09:47:58.475Z,14.13
2018-06-04T09:50:26.761Z,12.40
2018-06-04T09:52:54.958Z,13.10
2018-06-04T09:55:23.159Z,14.93
2018-06-04T09:57:51.338Z,12.10
2018-06-04T10:00:25.066Z,12.87
2018-06-04T10:02:53.301Z,10.70
2018-06-04T10:05:21.525Z,9.90
2018-06-04T10:07:49.711Z,10.47
2018-06-04T10:10:17.905Z,9.40
2018-06-04T10:12:46.115Z,9.77
2018-06-04T10:15:14.313Z,8.93
2018-06-04T10:17:42.506Z,10.20
2018-06-04T10:20:10.710Z,10.33
2018-06-04T10:22:38.914Z,8.55
2018-06-04T10:25:07.110Z,8.40
2018-06-04T10:27:35.286Z,7.75
2018-06-04T10:30:03.631Z,10.38
2018-06-04T10:32:31.849Z,8.05
2018-06-04T10:35:00.074Z,8.83
2018-06-04T10:37:28.270Z,9.68
2018-06-04T10:39:56.527Z,8.70
2018-06-04T10:42:24.768Z,7.87
2018-06-04T10:44:52.950Z,7.85
2018-06-04T10:47:21.130Z,7.42
2018-06-04T10:49:49.311Z,8.85
2018-06-04T10:52:17.496Z,7.90
2018-06-04T10:54:45.735Z,8.05
2018-06-04T10:57:13.945Z,8.18
2018-06-04T10:59:42.118Z,8.33
2018-06-04T11:02:10.292Z,8.33
2018-06-04T11:04:38.565Z,8.00
2018-06-04T11:07:06.811Z,8.00
2018-06-04T11:09:34.987Z,7.90
2018-06-04T11:12:03.166Z,7.70
2018-06-04T11:14:31.370Z,11.15
2018-06-04T11:16:59.622Z,8.88
2018-06-04T11:19:27.968Z,10.13
2018-06-04T11:21:56.135Z,7.42
2018-06-04T11:24:24.322Z,6.67
2018-06-04T11:26:53.237Z,7.22
2018-06-04T11:29:21.426Z,7.10
2018-06-04T11:31:49.617Z,6.92
2018-06-04T11:34:17.850Z,6.83
2018-06-04T11:36:46.063Z,6.65
2018-06-04T11:39:14.278Z,10.80
2018-06-04T11:41:42.453Z,7.87
2018-06-04T11:46:37.953Z,6.67
2018-06-04T11:49:06.181Z,6.33
2018-06-04T11:51:34.373Z,7.22
2018-06-04T11:54:02.560Z,6.62
2018-06-04T11:56:31.819Z,9.43
2018-06-04T11:58:59.942Z,7.62
2018-06-04T12:01:28.121Z,5.60
2018-06-04T12:03:56.406Z,5.50
2018-06-04T12:06:24.632Z,6.78
2018-06-04T12:08:52.844Z,6.53
2018-06-04T12:11:21.429Z,6.10
2018-06-04T12:13:49.593Z,6.80
2018-06-04T12:16:17.859Z,6.20
2018-06-04T12:18:46.071Z,6.37
2018-06-04T12:21:14.262Z,5.78
2018-06-04T12:23:42.446Z,6.33
2018-06-04T12:26:10.683Z,5.60
2018-06-04T12:28:38.946Z,6.15
2018-06-04T12:31:07.749Z,5.85
2018-06-04T12:33:36.000Z,7.05
2018-06-04T12:36:05.393Z,6.08
2018-06-04T12:38:33.565Z,5.78
2018-06-04T12:41:01.770Z,5.70
2018-06-04T12:43:29.948Z,6.17
2018-06-04T12:45:58.153Z,7.05
2018-06-04T12:48:26.336Z,5.60
2018-06-04T12:50:54.630Z,5.95
2018-06-04T12:53:22.786Z,6.37
2018-06-04T12:55:50.972Z,5.75
2018-06-04T12:58:19.192Z,5.70
2018-06-04T13:00:47.409Z,5.35
2018-06-04T13:03:15.581Z,5.65
2018-06-04T13:05:43.765Z,6.87
2018-06-04T13:08:11.957Z,5.22
2018-06-04T13:10:40.142Z,6.30
2018-06-04T13:13:08.313Z,5.03
2018-06-04T13:15:36.577Z,5.35
2018-06-04T13:18:04.926Z,5.72
2018-06-04T13:20:33.112Z,8.05
2018-06-04T13:23:01.326Z,7.75
2018-06-04T13:25:29.560Z,7.10
2018-06-04T13:27:57.747Z,6.42
2018-06-04T13:30:25.945Z,5.40
2018-06-04T13:32:54.201Z,5.53
2018-06-04T13:35:22.391Z,6.20
2018-06-04T13:37:50.617Z,5.92
2018-06-04T13:40:18.833Z,8.13
2018-06-04T13:42:47.012Z,7.37
2018-06-04T13:45:15.256Z,5.60
2018-06-04T13:47:43.483Z,6.05
2018-06-04T13:50:11.709Z,6.08
2018-06-04T13:52:39.893Z,6.67
2018-06-04T13:55:08.206Z,5.62
2018-06-04T13:57:36.398Z,5.50
2018-06-04T14:00:05.094Z,5.53
2018-06-04T14:02:33.269Z,5.55
2018-06-04T14:05:01.467Z,6.17
2018-06-04T14:07:29.721Z,6.10
2018-06-04T14:09:57.949Z,5.53
2018-06-04T14:12:26.131Z,5.85
2018-06-04T14:14:54.289Z,8.25
2018-06-04T14:17:22.517Z,6.62
2018-06-04T14:19:50.706Z,5.30
2018-06-04T14:22:18.904Z,8.73
2018-06-04T14:24:47.129Z,5.40
2018-06-04T14:27:15.366Z,5.65
2018-06-04T14:29:43.621Z,5.22
2018-06-04T14:32:11.824Z,5.22
2018-06-04T14:34:46.616Z,7.22
2018-06-04T14:37:14.930Z,10.68
2018-06-04T14:39:43.135Z,5.28
2018-06-04T14:42:11.334Z,7.55
2018-06-04T14:44:39.534Z,5.95
2018-06-04T14:47:07.729Z,7.20
2018-06-04T14:49:35.938Z,5.53
2018-06-04T14:52:04.131Z,5.10
2018-06-04T14:54:32.330Z,5.35
2018-06-04T14:57:00.518Z,5.42
2018-06-04T14:59:28.748Z,6.83
2018-06-04T15:01:56.929Z,4.83
2018-06-04T15:04:25.195Z,6.10
2018-06-04T15:06:53.357Z,5.30
2018-06-04T15:09:21.561Z,5.08
2018-06-04T15:11:49.775Z,6.70
2018-06-04T15:14:18.030Z,5.33
2018-06-04T15:16:46.219Z,5.97
2018-06-04T15:19:14.429Z,5.80
2018-06-04T15:21:42.652Z,5.50
2018-06-04T15:24:10.909Z,5.55
2018-06-04T15:26:39.169Z,6.87
2018-06-04T15:29:07.360Z,6.47
2018-06-04T15:31:35.543Z,4.58
2018-06-04T15:34:03.746Z,5.00
2018-06-04T15:36:31.993Z,6.78
2018-06-04T15:39:00.183Z,5.50
2018-06-04T15:41:28.398Z,5.00
2018-06-04T15:43:56.593Z,5.05
2018-06-04T15:46:24.798Z,8.35
2018-06-04T15:48:53.081Z,5.87
2018-06-04T15:51:21.324Z,5.03
2018-06-04T15:53:49.518Z,5.25
2018-06-04T15:56:17.970Z,8.90
2018-06-04T15:58:46.166Z,4.92
2018-06-04T16:01:14.370Z,5.62
2018-06-04T16:03:42.586Z,4.35
2018-06-04T16:06:10.845Z,4.75
2018-06-04T16:08:39.039Z,5.30
2018-06-04T16:11:07.265Z,5.15
2018-06-04T16:13:35.471Z,5.17
2018-06-04T16:16:03.672Z,8.33
2018-06-04T16:18:31.885Z,4.15
2018-06-04T16:21:00.140Z,4.55
2018-06-04T16:23:28.334Z,5.83
2018-06-04T16:25:56.514Z,6.53
2018-06-04T16:28:24.716Z,4.05
2018-06-04T16:30:52.920Z,5.62
2018-06-04T16:33:21.118Z,6.60
2018-06-04T16:35:49.396Z,4.20
2018-06-04T16:38:17.588Z,6.05
2018-06-04T16:40:45.799Z,6.37
2018-06-04T16:43:13.993Z,4.33
2018-06-04T16:45:42.317Z,4.43
2018-06-04T16:48:10.509Z,5.10
2018-06-04T16:50:38.737Z,6.50
2018-06-04T16:53:06.975Z,4.53
2018-06-04T16:55:35.232Z,6.87
2018-06-04T16:58:03.449Z,4.33
2018-06-04T17:00:31.654Z,4.20
2018-06-04T17:02:59.888Z,6.83
2018-06-04T17:05:28.110Z,4.97
2018-06-04T17:07:56.368Z,5.87
2018-06-04T17:10:24.553Z,5.00
2018-06-04T17:12:52.760Z,4.77
2018-06-04T17:15:20.941Z,4.90
2018-06-04T17:17:49.145Z,5.40
2018-06-04T17:20:17.381Z,4.70
2018-06-04T17:22:45.572Z,5.07
2018-06-04T17:25:13.757Z,5.03
2018-06-04T17:27:41.955Z,7.87
2018-06-04T17:30:10.151Z,6.47
2018-06-04T17:32:38.369Z,5.60
2018-06-04T17:35:06.700Z,5.13
2018-06-04T17:37:34.882Z,6.40
2018-06-04T17:40:03.094Z,5.93
2018-06-04T17:42:31.284Z,4.90
2018-06-04T17:44:59.516Z,6.67
2018-06-04T17:47:27.774Z,5.97
2018-06-04T17:49:56.548Z,4.87
2018-06-04T17:52:24.731Z,4.87
2018-06-04T17:54:52.892Z,5.37
2018-06-04T17:57:21.526Z,7.60
2018-06-04T17:59:49.719Z,8.37
2018-06-04T18:02:17.916Z,9.20
2018-06-04T18:04:46.101Z,7.13
2018-06-04T18:07:14.297Z,5.37
2018-06-04T18:09:42.494Z,4.77
2018-06-04T18:12:10.764Z,5.80
2018-06-04T18:14:39.041Z,6.60
2018-06-04T18:17:07.221Z,6.53
2018-06-04T18:19:35.424Z,6.33
2018-06-04T18:22:03.596Z,6.33
2018-06-04T18:24:31.885Z,6.80
2018-06-04T18:27:00.074Z,6.93
2018-06-04T18:29:28.332Z,6.17
2018-06-04T18:31:56.497Z,6.67
2018-06-04T18:34:24.665Z,6.80
2018-06-04T18:36:52.845Z,6.60
2018-06-04T18:39:21.599Z,6.60
2018-06-04T18:41:49.861Z,7.10
2018-06-04T18:44:18.043Z,9.40
2018-06-04T18:46:46.213Z,10.43
2018-06-04T18:49:14.397Z,10.80
2018-06-04T18:51:42.602Z,10.37
2018-06-04T18:54:10.801Z,9.80
2018-06-04T18:56:38.992Z,9.50
2018-06-04T18:59:07.173Z,9.07
2018-06-04T19:01:35.352Z,9.27
2018-06-04T19:04:03.704Z,10.67
2018-06-04T19:06:31.950Z,8.07
2018-06-04T19:09:00.202Z,8.77
2018-06-04T19:11:28.356Z,10.80
2018-06-04T19:13:56.544Z,10.17
2018-06-04T19:16:24.742Z,14.13
2018-06-04T19:18:52.955Z,12.87
2018-06-04T19:21:21.129Z,10.83
2018-06-04T19:23:49.293Z,10.20
2018-06-04T19:26:17.489Z,11.63
2018-06-04T19:28:45.736Z,12.63
2018-06-04T19:31:13.918Z,9.83
2018-06-04T19:33:42.248Z,10.43
2018-06-04T19:36:10.540Z,10.57
2018-06-04T19:38:38.842Z,10.37
2018-06-04T19:41:07.033Z,10.37
2018-06-04T19:43:35.222Z,10.20
2018-06-04T19:46:03.426Z,12.07
2018-06-04T19:48:32.021Z,11.83
2018-06-04T19:51:00.201Z,17.60
2018-06-04T19:53:28.428Z,11.33
2018-06-04T19:55:56.649Z,15.20
2018-06-04T19:58:24.824Z,11.53
2018-06-04T20:00:53.117Z,12.23
2018-06-04T20:03:21.314Z,11.00
2018-06-04T20:05:49.529Z,11.70
2018-06-04T20:08:17.752Z,17.80
2018-06-04T20:10:45.952Z,14.00
2018-06-04T20:13:14.204Z,19.77
2018-06-04T20:15:42.457Z,21.43
2018-06-04T20:18:10.641Z,20.23
2018-06-04T20:20:38.822Z,23.20
2018-06-04T20:23:06.997Z,20.30
2018-06-04T20:25:35.223Z,19.23
2018-06-04T20:28:03.505Z,22.53
2018-06-04T20:30:31.685Z,19.13
2018-06-04T20:32:59.869Z,25.07
2018-06-04T20:35:28.050Z,26.40
2018-06-04T20:37:56.355Z,23.30
2018-06-04T20:40:24.539Z,23.23
2018-06-04T20:42:52.716Z,27.63
2018-06-04T20:45:20.885Z,24.93
2018-06-04T20:47:49.126Z,23.03
2018-06-04T20:50:17.318Z,21.50
2018-06-04T20:52:45.506Z,22.50
2018-06-04T20:55:13.721Z,24.23
2018-06-04T20:57:41.914Z,21.57
2018-06-04T21:00:10.108Z,21.43
2018-06-04T21:02:38.322Z,23.37
2018-06-04T21:05:06.568Z,21.40
2018-06-04T21:07:34.801Z,21.30
2018-06-04T21:10:02.999Z,22.30
2018-06-04T21:12:31.278Z,21.80
2018-06-04T21:14:59.518Z,20.23
2018-06-04T21:17:27.702Z,20.83
2018-06-04T21:19:55.961Z,21.60
2018-06-04T21:22:24.280Z,20.73
2018-06-04T21:24:52.519Z,19.70
2018-06-04T21:27:20.703Z,23.40
2018-06-04T21:29:48.898Z,19.70
2018-06-04T21:32:17.174Z,19.43
2018-06-04T21:34:45.490Z,21.97
2018-06-04T21:37:13.697Z,20.67
2018-06-04T21:39:41.903Z,22.97
2018-06-04T21:42:10.092Z,21.17
2018-06-04T21:44:38.418Z,21.63
2018-06-04T21:47:07.385Z,20.37
2018-06-04T21:49:35.676Z,23.17
2018-06-04T21:52:03.939Z,24.60
2018-06-04T21:54:34.660Z,23.57
2018-06-04T21:57:03.038Z,22.47
2018-06-04T21:59:31.321Z,22.63
2018-06-04T22:01:59.600Z,21.17
2018-06-04T22:04:27.844Z,21.80
2018-06-04T22:06:56.100Z,23.57
2018-06-04T22:09:24.359Z,23.30
2018-06-04T22:11:52.640Z,22.47
2018-06-04T22:14:20.904Z,23.90
2018-06-04T22:16:49.205Z,22.63
2018-06-04T22:19:17.457Z,23.30
2018-06-04T22:21:45.731Z,23.57
2018-06-04T22:24:14.009Z,24.07
2018-06-04T22:26:42.249Z,23.13
2018-06-04T22:29:10.528Z,22.80
2018-06-04T22:34:13.523Z,23.30
2018-06-04T22:36:41.911Z,24.07
2018-06-04T22:39:10.154Z,23.77
2018-06-04T22:41:38.384Z,24.13
2018-06-04T22:44:06.615Z,23.07
2018-06-04T22:46:34.871Z,22.93
2018-06-04T22:49:06.124Z,23.07
2018-06-04T22:51:34.868Z,24.30
2018-06-04T22:54:03.140Z,22.93
2018-06-04T22:56:31.379Z,23.97
2018-06-04T22:58:59.604Z,23.77
2018-06-04T23:01:27.834Z,23.20
2018-06-04T23:03:56.067Z,23.60
2018-06-04T23:06:24.352Z,21.73
2018-06-04T23:08:52.559Z,22.13
2018-06-04T23:11:20.801Z,21.87
2018-06-04T23:13:49.051Z,21.77
2018-06-04T23:16:17.313Z,22.23
2018-06-04T23:18:45.577Z,22.60
2018-06-04T23:21:13.843Z,22.17
2018-06-04T23:23:42.106Z,23.17
2018-06-04T23:26:10.358Z,22.10
2018-06-04T23:28:38.618Z,20.67
2018-06-04T23:31:06.904Z,23.70
2018-06-04T23:33:35.145Z,22.77
2018-06-04T23:36:03.402Z,24.07
2018-06-04T23:38:31.644Z,25.40
2018-06-04T23:40:59.928Z,23.33
2018-06-04T23:43:28.144Z,25.10
2018-06-04T23:45:56.366Z,25.63
2018-06-04T23:48:24.588Z,26.33
2018-06-04T23:50:52.800Z,27.57
2018-06-04T23:53:21.072Z,25.23
2018-06-04T23:55:49.277Z,23.93
2018-06-04T23:58:17.633Z,23.17
